Time;durP1;ratioP1;P1;durP2;ratioP2;P2;SDS_P1;SDS_P2;PMS_P1;PMS_P2;Temp;Humidity;BMP_temperature;BMP_pressure;BME280_temperature;BME280_humidity;BME280_pressure;Samples;Min_cycle;Max_cycle;Signal;HPM_P1;HPM_P2
2023/12/01 00:02:05;;;;;;;25.20;12.60;;;;;;;;;;5114243;28;20232;-85
2023/12/01 00:04:32;;;;;;;25.33;9.97;;;;;;;;;;5114841;28;20210;-85
2023/12/01 00:06:59;;;;;;;22.67;12.93;;;;;;;;;;5114019;28;20237;-84
2023/12/01 00:09:27;;;;;;;17.17;9.80;;;;;;;;;;5114609;28;20259;-85
2023/12/01 00:11:54;;;;;;;25.53;11.03;;;;;;;;;;5114220;28;20238;-85
2023/12/01 00:14:21;;;;;;;16.47;10.77;;;;;;;;;;5114856;28;20213;-85
2023/12/01 00:16:48;;;;;;;25.20;10.77;;;;;;;;;;5114038;28;20239;-85
2023/12/01 00:19:15;;;;;;;21.17;10.73;;;;;;;;;;5114551;28;20226;-85
2023/12/01 00:21:42;;;;;;;27.47;10.83;;;;;;;;;;5114166;28;20699;-85
2023/12/01 00:24:09;;;;;;;22.80;10.13;;;;;;;;;;5114599;28;20212;-85
2023/12/01 00:26:37;;;;;;;25.80;9.27;;;;;;;;;;5113802;28;20755;-84
2023/12/01 00:29:04;;;;;;;16.50;9.80;;;;;;;;;;5114273;28;20218;-84
2023/12/01 00:31:31;;;;;;;17.87;10.23;;;;;;;;;;5113813;28;20233;-85
2023/12/01 00:33:58;;;;;;;16.73;10.53;;;;;;;;;;5114215;28;20215;-84
2023/12/01 00:36:26;;;;;;;17.13;9.60;;;;;;;;;;5113596;28;20250;-85
2023/12/01 00:38:53;;;;;;;19.57;11.90;;;;;;;;;;5113274;28;20235;-85
2023/12/01 00:41:20;;;;;;;17.83;11.10;;;;;;;;;;5113737;28;20254;-85
2023/12/01 00:43:49;;;;;;;15.73;10.17;;;;;;;;;;5114236;28;20210;-85
2023/12/01 00:46:16;;;;;;;15.53;9.90;;;;;;;;;;5113295;28;20273;-84
2023/12/01 00:48:43;;;;;;;19.70;10.67;;;;;;;;;;5113719;28;20210;-85
2023/12/01 00:51:15;;;;;;;15.90;9.70;;;;;;;;;;5113488;28;20640;-85
2023/12/01 00:53:42;;;;;;;16.83;10.83;;;;;;;;;;5096949;28;20193;-85
2023/12/01 00:56:10;;;;;;;15.87;10.17;;;;;;;;;;5113295;28;20284;-85
2023/12/01 00:58:37;;;;;;;19.83;11.20;;;;;;;;;;5113623;28;20237;-85
2023/12/01 01:01:06;;;;;;;19.60;11.33;;;;;;;;;;5113398;28;20610;-85
2023/12/01 01:03:34;;;;;;;13.43;8.93;;;;;;;;;;5113377;28;20708;-85
2023/12/01 01:06:01;;;;;;;17.40;10.67;;;;;;;;;;5113050;28;20296;-85
2023/12/01 01:08:29;;;;;;;14.23;11.17;;;;;;;;;;5093157;28;20214;-85
2023/12/01 01:10:56;;;;;;;15.40;10.30;;;;;;;;;;5107277;28;20325;-84
2023/12/01 01:13:24;;;;;;;16.27;10.60;;;;;;;;;;5113338;28;20202;-85
2023/12/01 01:15:51;;;;;;;12.07;9.57;;;;;;;;;;5112986;28;20242;-85
2023/12/01 01:18:20;;;;;;;12.97;10.43;;;;;;;;;;5113113;28;20281;-85
2023/12/01 01:20:47;;;;;;;16.90;10.07;;;;;;;;;;5112883;28;20238;-85
2023/12/01 01:23:14;;;;;;;13.40;10.00;;;;;;;;;;5113103;28;20672;-85
2023/12/01 01:25:41;;;;;;;18.17;10.20;;;;;;;;;;5112758;28;20235;-85
2023/12/01 01:28:08;;;;;;;15.23;10.03;;;;;;;;;;5113063;28;20619;-85
2023/12/01 01:30:35;;;;;;;14.00;9.57;;;;;;;;;;5112595;28;20655;-85
2023/12/01 01:33:02;;;;;;;18.80;10.80;;;;;;;;;;5113419;28;20210;-85
2023/12/01 01:35:32;;;;;;;14.80;10.10;;;;;;;;;;5112444;28;20261;-84
2023/12/01 01:37:59;;;;;;;23.07;12.27;;;;;;;;;;5113092;28;20704;-85
2023/12/01 01:40:26;;;;;;;17.60;11.90;;;;;;;;;;5112121;28;20717;-85
2023/12/01 01:42:53;;;;;;;18.00;10.53;;;;;;;;;;5112733;28;20211;-85
2023/12/01 01:45:20;;;;;;;19.17;11.23;;;;;;;;;;5112317;28;20226;-85
2023/12/01 01:47:47;;;;;;;17.77;12.33;;;;;;;;;;5112567;28;20210;-85
2023/12/01 01:50:14;;;;;;;14.30;10.50;;;;;;;;;;5112241;28;20237;-85
2023/12/01 01:52:43;;;;;;;15.10;10.40;;;;;;;;;;5112901;28;20199;-85
2023/12/01 01:55:12;;;;;;;15.83;10.47;;;;;;;;;;5112340;28;20228;-85
2023/12/01 01:57:39;;;;;;;17.63;11.53;;;;;;;;;;5111472;28;20729;-85
2023/12/01 02:00:07;;;;;;;19.63;9.20;;;;;;;;;;5093163;28;20246;-85
2023/12/01 02:02:34;;;;;;;15.47;10.33;;;;;;;;;;5105887;28;20234;-85
2023/12/01 02:05:02;;;;;;;19.03;11.30;;;;;;;;;;5112170;28;20207;-85
2023/12/01 02:07:29;;;;;;;14.27;9.90;;;;;;;;;;5107990;28;20269;-85
2023/12/01 02:09:57;;;;;;;15.57;10.37;;;;;;;;;;5109881;28;20738;-85
2023/12/01 02:12:24;;;;;;;17.80;10.47;;;;;;;;;;5091511;28;20239;-85
2023/12/01 02:14:51;;;;;;;14.77;9.57;;;;;;;;;;5098462;28;20717;-85
2023/12/01 02:17:19;;;;;;;15.67;10.47;;;;;;;;;;5111980;28;20231;-85
2023/12/01 02:19:46;;;;;;;22.33;11.37;;;;;;;;;;5112367;28;20223;-85
2023/12/01 02:22:14;;;;;;;17.93;10.57;;;;;;;;;;5111677;28;20712;-85
2023/12/01 02:24:41;;;;;;;14.17;9.80;;;;;;;;;;5112366;28;20206;-85
2023/12/01 02:27:08;;;;;;;24.47;12.60;;;;;;;;;;5111850;28;20758;-85
2023/12/01 02:29:35;;;;;;;18.87;10.80;;;;;;;;;;5112096;28;20267;-85
2023/12/01 02:32:02;;;;;;;19.67;11.03;;;;;;;;;;5111604;28;20284;-86
2023/12/01 02:34:29;;;;;;;21.13;10.03;;;;;;;;;;5112314;28;20210;-84
2023/12/01 02:36:58;;;;;;;14.67;9.97;;;;;;;;;;5111620;28;20261;-84
2023/12/01 02:39:27;;;;;;;16.07;10.33;;;;;;;;;;5112088;28;20838;-85
2023/12/01 02:41:54;;;;;;;15.90;10.50;;;;;;;;;;5111519;28;20235;-85
2023/12/01 02:44:21;;;;;;;23.33;12.47;;;;;;;;;;5112166;28;20211;-85
2023/12/01 02:46:48;;;;;;;21.13;11.97;;;;;;;;;;5111543;28;20303;-84
2023/12/01 02:49:14;;;;;;;19.07;11.07;;;;;;;;;;5111864;28;20618;-84
2023/12/01 02:51:41;;;;;;;25.93;12.33;;;;;;;;;;5111348;28;20318;-85
2023/12/01 02:54:08;;;;;;;18.83;10.77;;;;;;;;;;5112073;28;20263;-85
2023/12/01 02:56:36;;;;;;;24.07;11.23;;;;;;;;;;5111218;28;20238;-85
2023/12/01 02:59:03;;;;;;;19.70;11.77;;;;;;;;;;5112021;28;20227;-85
2023/12/01 03:01:30;;;;;;;17.27;10.40;;;;;;;;;;5111865;28;20295;-85
2023/12/01 03:03:57;;;;;;;23.20;10.90;;;;;;;;;;5116222;28;20212;-85
2023/12/01 03:06:24;;;;;;;25.90;11.33;;;;;;;;;;5115243;28;20238;-85
2023/12/01 03:08:51;;;;;;;18.03;11.80;;;;;;;;;;5115874;28;20210;-85
2023/12/01 03:11:22;;;;;;;21.73;12.57;;;;;;;;;;5115463;28;20649;-85
2023/12/01 03:13:51;;;;;;;20.30;10.23;;;;;;;;;;5115836;28;20648;-85
2023/12/01 03:16:18;;;;;;;18.80;11.53;;;;;;;;;;5115017;28;20234;-86
2023/12/01 03:18:45;;;;;;;26.97;11.80;;;;;;;;;;5115420;28;20564;-85
2023/12/01 03:21:12;;;;;;;21.67;11.57;;;;;;;;;;5115080;28;20234;-85
2023/12/01 03:23:40;;;;;;;28.17;13.97;;;;;;;;;;5115758;28;20297;-85
2023/12/01 03:26:08;;;;;;;24.50;11.20;;;;;;;;;;5115218;28;20243;-85
2023/12/01 03:28:35;;;;;;;24.03;11.13;;;;;;;;;;5115742;27;20295;-85
2023/12/01 03:31:04;;;;;;;22.93;10.97;;;;;;;;;;5114973;28;20921;-86
2023/12/01 03:33:31;;;;;;;17.70;10.50;;;;;;;;;;5118191;28;20648;-85
2023/12/01 03:35:58;;;;;;;19.37;13.10;;;;;;;;;;5115498;28;20259;-85
2023/12/01 03:38:25;;;;;;;19.73;10.70;;;;;;;;;;5115489;28;20603;-85
2023/12/01 03:40:54;;;;;;;21.50;10.57;;;;;;;;;;5115229;28;20247;-86
2023/12/01 03:43:21;;;;;;;15.63;10.80;;;;;;;;;;5115342;28;20260;-86
2023/12/01 03:45:48;;;;;;;20.47;11.80;;;;;;;;;;5114730;28;20643;-86
2023/12/01 03:48:17;;;;;;;22.87;11.47;;;;;;;;;;5114936;28;20210;-86
2023/12/01 03:50:44;;;;;;;21.53;11.23;;;;;;;;;;5114605;28;20235;-85
2023/12/01 03:53:11;;;;;;;19.13;10.83;;;;;;;;;;5115374;28;20268;-85
2023/12/01 03:55:39;;;;;;;21.07;12.60;;;;;;;;;;5114239;28;20288;-86
2023/12/01 03:58:06;;;;;;;19.63;10.57;;;;;;;;;;5114913;28;20681;-85
2023/12/01 04:00:33;;;;;;;19.73;11.10;;;;;;;;;;5114335;28;20235;-85
2023/12/01 04:03:00;;;;;;;23.73;10.93;;;;;;;;;;5115316;28;20218;-85
2023/12/01 04:05:30;;;;;;;24.87;10.87;;;;;;;;;;5114329;28;20231;-85
2023/12/01 04:07:57;;;;;;;17.17;11.40;;;;;;;;;;5115832;28;20214;-86
2023/12/01 04:10:24;;;;;;;24.00;11.50;;;;;;;;;;5116228;28;20235;-85
2023/12/01 04:12:51;;;;;;;26.10;12.87;;;;;;;;;;5127677;28;20210;-85
2023/12/01 04:15:19;;;;;;;32.73;14.33;;;;;;;;;;5128211;28;20231;-84
2023/12/01 04:17:47;;;;;;;20.07;10.40;;;;;;;;;;5128801;28;20199;-85
2023/12/01 04:20:27;;;;;;;26.83;12.97;;;;;;;;;;5128244;28;20228;-85
2023/12/01 04:22:56;;;;;;;20.93;12.77;;;;;;;;;;5128737;28;20203;-85
2023/12/01 04:25:23;;;;;;;26.20;12.50;;;;;;;;;;5127627;28;20239;-84
2023/12/01 04:27:50;;;;;;;20.77;12.23;;;;;;;;;;5114511;28;20211;-85
2023/12/01 04:30:17;;;;;;;18.00;11.10;;;;;;;;;;5113333;28;20704;-85
2023/12/01 04:32:44;;;;;;;20.67;10.37;;;;;;;;;;5114006;28;20214;-85
2023/12/01 04:35:12;;;;;;;24.07;12.27;;;;;;;;;;5113558;28;20219;-85
2023/12/01 04:37:40;;;;;;;23.17;12.27;;;;;;;;;;5114115;28;20210;-85
2023/12/01 04:40:14;;;;;;;22.90;11.90;;;;;;;;;;5113194;28;20255;-85
2023/12/01 04:42:41;;;;;;;24.40;12.67;;;;;;;;;;5113952;28;20201;-86
2023/12/01 04:45:11;;;;;;;23.47;11.60;;;;;;;;;;5113526;28;20228;-85
2023/12/01 04:47:38;;;;;;;24.83;11.77;;;;;;;;;;5114024;28;20208;-86
2023/12/01 04:50:12;;;;;;;19.43;10.97;;;;;;;;;;5113547;27;20249;-85
2023/12/01 04:52:39;;;;;;;20.50;11.33;;;;;;;;;;5114503;28;20187;-86
2023/12/01 04:55:06;;;;;;;24.73;10.93;;;;;;;;;;5113985;28;20204;-85
2023/12/01 04:57:34;;;;;;;18.60;11.50;;;;;;;;;;5113819;28;20203;-85
2023/12/01 05:00:01;;;;;;;25.70;11.07;;;;;;;;;;5113558;28;20220;-85
2023/12/01 05:02:28;;;;;;;22.60;12.13;;;;;;;;;;5113564;28;20219;-85
2023/12/01 05:04:55;;;;;;;20.13;11.07;;;;;;;;;;5113760;28;20273;-85
2023/12/01 05:07:22;;;;;;;23.47;12.17;;;;;;;;;;5113924;28;20288;-84
2023/12/01 05:09:50;;;;;;;32.23;14.53;;;;;;;;;;5114652;28;20204;-85
2023/12/01 05:12:17;;;;;;;20.60;10.27;;;;;;;;;;5112715;28;20250;-83
2023/12/01 05:14:45;;;;;;;15.63;10.47;;;;;;;;;;5126584;27;20619;-86
2023/12/01 05:17:12;;;;;;;21.53;11.13;;;;;;;;;;5132699;27;20242;-85
2023/12/01 05:19:39;;;;;;;20.43;12.30;;;;;;;;;;5108423;28;20227;-84
2023/12/01 05:22:06;;;;;;;30.63;12.10;;;;;;;;;;5111442;28;20242;-85
2023/12/01 05:24:33;;;;;;;18.37;10.87;;;;;;;;;;5112742;28;20212;-85
2023/12/01 05:27:07;;;;;;;24.63;13.10;;;;;;;;;;5112539;28;20243;-83
2023/12/01 05:29:35;;;;;;;21.77;11.43;;;;;;;;;;5113145;28;20187;-84
2023/12/01 05:32:04;;;;;;;23.90;11.93;;;;;;;;;;5112467;28;20321;-83
2023/12/01 05:34:31;;;;;;;25.47;13.33;;;;;;;;;;5112827;28;20207;-84
2023/12/01 05:37:00;;;;;;;17.40;10.90;;;;;;;;;;5112577;28;20292;-84
2023/12/01 05:39:27;;;;;;;19.97;11.30;;;;;;;;;;5113307;28;20603;-84
2023/12/01 05:41:54;;;;;;;20.37;10.33;;;;;;;;;;5112135;28;20231;-84
2023/12/01 05:44:21;;;;;;;20.93;11.23;;;;;;;;;;5112915;28;20204;-85
2023/12/01 05:46:48;;;;;;;19.90;11.83;;;;;;;;;;5111900;28;20697;-85
2023/12/01 05:49:16;;;;;;;22.53;11.97;;;;;;;;;;5112336;28;20256;-84
2023/12/01 05:51:43;;;;;;;20.90;11.10;;;;;;;;;;5112567;28;20235;-85
2023/12/01 05:54:10;;;;;;;18.03;11.17;;;;;;;;;;5112817;28;20256;-85
2023/12/01 05:56:37;;;;;;;19.53;12.37;;;;;;;;;;5112055;28;20713;-85
2023/12/01 05:59:04;;;;;;;24.23;12.00;;;;;;;;;;5112120;28;20203;-85
2023/12/01 06:01:31;;;;;;;22.90;12.47;;;;;;;;;;5111995;28;20310;-84
2023/12/01 06:03:58;;;;;;;20.37;11.17;;;;;;;;;;5112991;28;20191;-83
2023/12/01 06:06:27;;;;;;;24.77;11.10;;;;;;;;;;5112571;28;20238;-83
2023/12/01 06:08:54;;;;;;;24.53;10.93;;;;;;;;;;5112646;28;20222;-84
2023/12/01 06:11:21;;;;;;;17.37;11.40;;;;;;;;;;5112405;28;20667;-83
2023/12/01 06:13:48;;;;;;;20.70;10.80;;;;;;;;;;5112383;28;20670;-82
2023/12/01 06:16:15;;;;;;;19.33;11.07;;;;;;;;;;5111696;28;20297;-81
2023/12/01 06:18:42;;;;;;;19.20;11.80;;;;;;;;;;5112297;28;20258;-81
2023/12/01 06:21:09;;;;;;;18.77;10.57;;;;;;;;;;5111530;28;20650;-81
2023/12/01 06:23:37;;;;;;;19.97;10.70;;;;;;;;;;5112173;28;20771;-82
2023/12/01 06:26:05;;;;;;;18.43;10.93;;;;;;;;;;5111679;28;20251;-82
2023/12/01 06:28:33;;;;;;;17.87;11.33;;;;;;;;;;5112520;28;20645;-81
2023/12/01 06:31:00;;;;;;;20.27;11.23;;;;;;;;;;5111707;28;20709;-81
2023/12/01 06:33:27;;;;;;;19.37;10.07;;;;;;;;;;5111676;28;20291;-82
2023/12/01 06:35:54;;;;;;;23.43;13.23;;;;;;;;;;5111864;28;20239;-81
2023/12/01 06:38:21;;;;;;;15.97;9.53;;;;;;;;;;5115940;28;20200;-84
2023/12/01 06:40:49;;;;;;;18.63;10.90;;;;;;;;;;5115838;28;20719;-83
2023/12/01 06:43:16;;;;;;;21.33;11.90;;;;;;;;;;5116296;28;20195;-84
2023/12/01 06:45:44;;;;;;;16.90;10.30;;;;;;;;;;5119555;28;20655;-83
2023/12/01 06:48:12;;;;;;;21.53;11.37;;;;;;;;;;5116770;28;20265;-83
2023/12/01 06:50:39;;;;;;;22.33;10.60;;;;;;;;;;5116548;28;20239;-83
2023/12/01 06:53:06;;;;;;;18.03;11.07;;;;;;;;;;5117054;28;20572;-84
2023/12/01 06:55:33;;;;;;;21.67;10.70;;;;;;;;;;5115363;28;20239;-83
2023/12/01 06:58:02;;;;;;;22.53;11.90;;;;;;;;;;5115882;28;20211;-84
2023/12/01 07:00:36;;;;;;;24.90;12.10;;;;;;;;;;5115672;28;20239;-83
2023/12/01 07:03:03;;;;;;;18.70;10.90;;;;;;;;;;5115905;28;20215;-84
2023/12/01 07:05:31;;;;;;;21.23;12.23;;;;;;;;;;5115418;28;20243;-83
2023/12/01 07:07:59;;;;;;;21.10;10.67;;;;;;;;;;5116004;28;20289;-83
2023/12/01 07:10:26;;;;;;;17.67;11.40;;;;;;;;;;5115297;28;20248;-83
2023/12/01 07:12:53;;;;;;;16.80;10.83;;;;;;;;;;5115926;28;20208;-83
2023/12/01 07:15:22;;;;;;;19.60;11.00;;;;;;;;;;5114778;28;20628;-83
2023/12/01 07:17:50;;;;;;;20.23;10.83;;;;;;;;;;5115371;28;20253;-84
2023/12/01 07:20:18;;;;;;;17.43;10.20;;;;;;;;;;5114965;28;20314;-83
2023/12/01 07:22:45;;;;;;;15.80;10.00;;;;;;;;;;5115727;28;20215;-83
2023/12/01 07:25:21;;;;;;;16.43;10.33;;;;;;;;;;5115056;28;20227;-83
2023/12/01 07:27:48;;;;;;;18.43;10.20;;;;;;;;;;5115665;28;20195;-84
2023/12/01 07:30:16;;;;;;;30.33;11.60;;;;;;;;;;5114874;28;20205;-83
2023/12/01 07:32:45;;;;;;;14.97;9.47;;;;;;;;;;5115359;28;20819;-84
2023/12/01 07:35:13;;;;;;;15.97;10.00;;;;;;;;;;5114438;28;20269;-83
2023/12/01 07:37:42;;;;;;;22.67;11.57;;;;;;;;;;5109849;28;20239;-84
2023/12/01 07:40:09;;;;;;;15.40;9.00;;;;;;;;;;5101230;27;20224;-83
2023/12/01 07:42:36;;;;;;;18.70;9.63;;;;;;;;;;5096878;28;20208;-84
2023/12/01 07:45:03;;;;;;;15.80;10.80;;;;;;;;;;5113689;28;20203;-83
2023/12/01 07:47:31;;;;;;;18.43;9.80;;;;;;;;;;5113189;28;20215;-83
2023/12/01 07:49:59;;;;;;;15.73;10.27;;;;;;;;;;5113740;28;20212;-84
2023/12/01 07:52:27;;;;;;;14.60;10.23;;;;;;;;;;5113457;28;20247;-84
2023/12/01 07:54:54;;;;;;;18.27;10.40;;;;;;;;;;5114172;28;20287;-84
2023/12/01 07:57:21;;;;;;;15.37;10.60;;;;;;;;;;5113142;28;20230;-84
2023/12/01 07:59:48;;;;;;;17.30;9.43;;;;;;;;;;5109100;28;20200;-84
2023/12/01 08:02:15;;;;;;;14.60;9.30;;;;;;;;;;5112905;28;20227;-84
2023/12/01 08:04:42;;;;;;;17.47;10.13;;;;;;;;;;5113606;28;20207;-84
2023/12/01 08:07:11;;;;;;;15.63;9.40;;;;;;;;;;5113083;28;20652;-84
2023/12/01 08:09:38;;;;;;;13.83;8.77;;;;;;;;;;5112769;28;20201;-84
2023/12/01 08:12:05;;;;;;;17.77;10.43;;;;;;;;;;5112287;28;20234;-84
2023/12/01 08:14:32;;;;;;;18.73;9.20;;;;;;;;;;5112940;28;20211;-84
2023/12/01 08:16:59;;;;;;;16.57;9.77;;;;;;;;;;5112847;28;20224;-84
2023/12/01 08:19:26;;;;;;;17.37;10.80;;;;;;;;;;5104073;28;20204;-84
2023/12/01 08:21:54;;;;;;;19.47;10.40;;;;;;;;;;5106805;28;20256;-84
2023/12/01 08:24:23;;;;;;;19.87;11.60;;;;;;;;;;5101465;28;20209;-84
2023/12/01 08:26:51;;;;;;;17.50;10.00;;;;;;;;;;5112876;28;20250;-84
2023/12/01 08:29:18;;;;;;;21.53;10.77;;;;;;;;;;5112763;28;20287;-84
2023/12/01 08:31:46;;;;;;;18.33;10.43;;;;;;;;;;5112489;28;20232;-84
2023/12/01 08:34:13;;;;;;;20.43;10.47;;;;;;;;;;5113226;28;20243;-84
2023/12/01 08:36:40;;;;;;;16.10;9.47;;;;;;;;;;5111778;28;20224;-84
2023/12/01 08:39:09;;;;;;;17.50;10.07;;;;;;;;;;5112687;28;20670;-84
2023/12/01 08:41:37;;;;;;;18.63;9.67;;;;;;;;;;5111984;28;20243;-84
2023/12/01 08:44:05;;;;;;;18.67;10.40;;;;;;;;;;5113283;28;20196;-84
2023/12/01 08:46:32;;;;;;;15.90;9.37;;;;;;;;;;5112093;28;20258;-84
2023/12/01 08:48:59;;;;;;;13.70;9.93;;;;;;;;;;5112307;28;20309;-84
2023/12/01 08:51:26;;;;;;;18.17;10.27;;;;;;;;;;5111487;28;20273;-84
2023/12/01 08:53:53;;;;;;;17.00;10.27;;;;;;;;;;5113107;28;20290;-84
2023/12/01 08:56:20;;;;;;;16.07;9.53;;;;;;;;;;5112055;28;20603;-84
2023/12/01 08:58:48;;;;;;;18.63;10.30;;;;;;;;;;5112139;28;20207;-84
2023/12/01 09:01:16;;;;;;;19.37;10.67;;;;;;;;;;5113131;28;20259;-84
2023/12/01 09:03:43;;;;;;;17.13;10.43;;;;;;;;;;5105668;28;20207;-84
2023/12/01 09:06:10;;;;;;;14.17;9.93;;;;;;;;;;5114518;28;20319;-84
2023/12/01 09:08:37;;;;;;;17.70;10.53;;;;;;;;;;5112729;28;20803;-84
2023/12/01 09:11:05;;;;;;;12.47;9.20;;;;;;;;;;5115845;28;20249;-83
2023/12/01 09:13:34;;;;;;;17.93;10.90;;;;;;;;;;5114227;28;20226;-84
2023/12/01 09:16:02;;;;;;;18.47;9.57;;;;;;;;;;5112658;28;20231;-84
2023/12/01 09:18:29;;;;;;;12.23;9.27;;;;;;;;;;5111564;28;20261;-84
2023/12/01 09:20:57;;;;;;;15.30;9.60;;;;;;;;;;5111057;28;20645;-84
2023/12/01 09:23:24;;;;;;;17.60;10.43;;;;;;;;;;5111856;28;20644;-84
2023/12/01 09:25:51;;;;;;;14.73;9.87;;;;;;;;;;5111504;28;20234;-84
2023/12/01 09:28:18;;;;;;;16.00;10.23;;;;;;;;;;5112665;28;20724;-84
2023/12/01 09:30:45;;;;;;;19.90;11.43;;;;;;;;;;5110964;28;20227;-84
2023/12/01 09:33:14;;;;;;;19.13;10.53;;;;;;;;;;5112122;28;20755;-84
2023/12/01 09:35:41;;;;;;;13.10;9.03;;;;;;;;;;5110910;28;20232;-84
2023/12/01 09:38:08;;;;;;;18.83;11.53;;;;;;;;;;5111438;28;20196;-84
2023/12/01 09:40:37;;;;;;;26.03;10.43;;;;;;;;;;5110164;28;20264;-84
2023/12/01 09:43:05;;;;;;;14.90;8.70;;;;;;;;;;5105250;28;20815;-84
2023/12/01 09:45:32;;;;;;;16.43;10.90;;;;;;;;;;5108339;28;20244;-84
2023/12/01 09:48:00;;;;;;;15.57;10.63;;;;;;;;;;5102752;28;20207;-84
2023/12/01 09:50:28;;;;;;;17.57;10.57;;;;;;;;;;5110014;28;20237;-84
2023/12/01 09:52:55;;;;;;;15.83;9.67;;;;;;;;;;5110995;28;20682;-84
2023/12/01 09:55:22;;;;;;;17.07;9.43;;;;;;;;;;5111025;28;20247;-82
2023/12/01 09:57:52;;;;;;;17.13;11.07;;;;;;;;;;5111533;28;20211;-83
2023/12/01 10:00:19;;;;;;;14.83;9.83;;;;;;;;;;5110413;28;20674;-84
2023/12/01 10:02:46;;;;;;;14.83;9.80;;;;;;;;;;5110715;28;20253;-82
2023/12/01 10:05:13;;;;;;;15.57;9.67;;;;;;;;;;5110834;28;20230;-82
2023/12/01 10:07:42;;;;;;;18.70;10.10;;;;;;;;;;5111320;28;20701;-83
2023/12/01 10:10:18;;;;;;;17.70;10.37;;;;;;;;;;5110398;28;20200;-83
2023/12/01 10:12:53;;;;;;;18.07;9.13;;;;;;;;;;5109906;28;20219;-84
2023/12/01 10:15:21;;;;;;;12.80;8.90;;;;;;;;;;5110860;28;20246;-84
2023/12/01 10:17:48;;;;;;;16.17;10.00;;;;;;;;;;5103018;28;20294;-84
2023/12/01 10:20:18;;;;;;;13.63;9.87;;;;;;;;;;5110660;28;20295;-84
2023/12/01 10:22:46;;;;;;;15.13;10.53;;;;;;;;;;5109082;28;20591;-84
2023/12/01 10:25:13;;;;;;;13.87;9.80;;;;;;;;;;5109857;28;20223;-84
2023/12/01 10:27:41;;;;;;;9.60;6.77;;;;;;;;;;5109953;28;20689;-84
2023/12/01 10:30:12;;;;;;;15.87;9.83;;;;;;;;;;5106494;28;20209;-84
2023/12/01 10:32:39;;;;;;;15.90;9.93;;;;;;;;;;5109761;28;20208;-84
2023/12/01 10:35:06;;;;;;;13.90;9.83;;;;;;;;;;5104720;28;20204;-81
2023/12/01 10:37:33;;;;;;;15.37;8.90;;;;;;;;;;5108455;28;20295;-81
2023/12/01 10:40:05;;;;;;;15.90;10.90;;;;;;;;;;5110153;28;20204;-84
2023/12/01 10:42:34;;;;;;;15.73;9.50;;;;;;;;;;5110553;28;20238;-84
2023/12/01 10:45:01;;;;;;;11.07;8.57;;;;;;;;;;5110934;28;20291;-84
2023/12/01 10:47:29;;;;;;;13.50;9.03;;;;;;;;;;5110829;28;20227;-83
2023/12/01 10:49:57;;;;;;;15.20;9.37;;;;;;;;;;5108911;28;20226;-84
2023/12/01 10:52:24;;;;;;;14.20;8.83;;;;;;;;;;5107198;28;20227;-84
2023/12/01 10:54:52;;;;;;;16.50;9.50;;;;;;;;;;5110277;28;20283;-83
2023/12/01 10:57:26;;;;;;;15.10;9.77;;;;;;;;;;5110275;28;20296;-84
2023/12/01 10:59:54;;;;;;;11.63;7.67;;;;;;;;;;5102524;28;20234;-84
2023/12/01 11:02:23;;;;;;;15.07;9.87;;;;;;;;;;5109942;28;20236;-84
2023/12/01 11:04:50;;;;;;;13.40;8.90;;;;;;;;;;5110963;28;20211;-84
2023/12/01 11:07:23;;;;;;;13.27;7.70;;;;;;;;;;5110185;28;20232;-84
2023/12/01 11:10:01;;;;;;;10.47;7.43;;;;;;;;;;5110029;28;20205;-84
2023/12/01 11:12:40;;;;;;;10.43;7.33;;;;;;;;;;5106831;28;20264;-84
2023/12/01 11:15:12;;;;;;;12.20;8.13;;;;;;;;;;5109826;28;20203;-84
2023/12/01 11:17:39;;;;;;;8.47;6.70;;;;;;;;;;5110257;28;20283;-84
2023/12/01 11:20:21;;;;;;;12.57;7.77;;;;;;;;;;5109625;28;20204;-84
2023/12/01 11:22:48;;;;;;;7.40;6.43;;;;;;;;;;5110587;28;20219;-84
2023/12/01 11:25:30;;;;;;;7.57;6.20;;;;;;;;;;5114088;28;20704;-83
2023/12/01 11:27:58;;;;;;;7.17;5.33;;;;;;;;;;5113711;28;20211;-84
2023/12/01 11:30:28;;;;;;;7.87;6.73;;;;;;;;;;5113175;28;20310;-85
2023/12/01 11:32:55;;;;;;;7.70;6.90;;;;;;;;;;5114893;28;20265;-85
2023/12/01 11:35:23;;;;;;;8.30;5.80;;;;;;;;;;5113687;28;20249;-85
2023/12/01 11:37:59;;;;;;;10.57;7.33;;;;;;;;;;5114388;28;20243;-85
2023/12/01 11:40:27;;;;;;;9.30;7.20;;;;;;;;;;5109270;28;20227;-85
2023/12/01 11:42:56;;;;;;;9.23;6.93;;;;;;;;;;5114359;28;20224;-85
2023/12/01 11:45:37;;;;;;;10.37;5.83;;;;;;;;;;5113858;28;20322;-84
2023/12/01 11:48:07;;;;;;;7.07;5.63;;;;;;;;;;5114272;28;20294;-84
2023/12/01 11:50:34;;;;;;;7.77;6.23;;;;;;;;;;5112714;28;20280;-84
2023/12/01 11:53:02;;;;;;;9.33;7.17;;;;;;;;;;5114191;28;20201;-84
2023/12/01 11:55:30;;;;;;;14.27;6.57;;;;;;;;;;5113453;28;20615;-84
2023/12/01 11:57:58;;;;;;;8.23;6.23;;;;;;;;;;5113927;28;20671;-84
2023/12/01 12:00:26;;;;;;;6.57;5.83;;;;;;;;;;5113097;28;20232;-84
2023/12/01 12:02:54;;;;;;;6.37;5.70;;;;;;;;;;5113592;28;20224;-84
2023/12/01 12:05:21;;;;;;;7.07;5.20;;;;;;;;;;5113256;28;20247;-84
2023/12/01 12:07:48;;;;;;;7.40;6.43;;;;;;;;;;5113592;28;20855;-84
2023/12/01 12:10:16;;;;;;;6.77;5.63;;;;;;;;;;5112636;28;20608;-84
2023/12/01 12:12:43;;;;;;;8.57;5.67;;;;;;;;;;5113747;28;20572;-84
2023/12/01 12:15:13;;;;;;;7.13;5.83;;;;;;;;;;5112933;28;20232;-84
2023/12/01 12:17:41;;;;;;;6.33;5.23;;;;;;;;;;5109123;28;20226;-84
2023/12/01 12:20:11;;;;;;;8.50;6.07;;;;;;;;;;5112602;28;20215;-84
2023/12/01 12:22:39;;;;;;;7.80;5.70;;;;;;;;;;5113347;28;20339;-84
2023/12/01 12:25:09;;;;;;;7.73;6.07;;;;;;;;;;5112839;28;20207;-84
2023/12/01 12:27:40;;;;;;;8.67;5.70;;;;;;;;;;5113210;28;20211;-84
2023/12/01 12:30:09;;;;;;;10.97;5.43;;;;;;;;;;5112185;28;20778;-84
2023/12/01 12:32:36;;;;;;;7.40;5.97;;;;;;;;;;5112824;28;20235;-84
2023/12/01 12:35:03;;;;;;;7.50;6.07;;;;;;;;;;5111764;28;20200;-81
2023/12/01 12:37:32;;;;;;;7.03;5.70;;;;;;;;;;5113376;28;20235;-84
2023/12/01 12:40:00;;;;;;;5.80;5.17;;;;;;;;;;5112239;28;20658;-84
2023/12/01 12:42:27;;;;;;;6.77;4.53;;;;;;;;;;5104462;28;20240;-84
2023/12/01 12:44:54;;;;;;;6.60;5.63;;;;;;;;;;5111907;28;20216;-84
2023/12/01 12:47:22;;;;;;;6.80;5.00;;;;;;;;;;5112663;28;20276;-84
2023/12/01 12:49:49;;;;;;;6.00;4.37;;;;;;;;;;5112488;28;20200;-84
2023/12/01 12:52:16;;;;;;;5.20;4.70;;;;;;;;;;5110616;28;20586;-85
2023/12/01 12:54:44;;;;;;;5.77;5.03;;;;;;;;;;5111733;28;20200;-84
2023/12/01 12:57:11;;;;;;;5.57;5.07;;;;;;;;;;5112042;28;20224;-84
2023/12/01 12:59:38;;;;;;;6.47;5.67;;;;;;;;;;5104933;28;20208;-84
2023/12/01 13:02:06;;;;;;;6.80;5.40;;;;;;;;;;5112544;28;20224;-84
2023/12/01 13:04:33;;;;;;;6.27;5.27;;;;;;;;;;5112258;28;20264;-83
2023/12/01 13:07:00;;;;;;;5.93;5.27;;;;;;;;;;5112362;28;20235;-83
2023/12/01 13:09:27;;;;;;;5.73;4.87;;;;;;;;;;5108483;28;20520;-84
2023/12/01 13:11:56;;;;;;;7.43;5.70;;;;;;;;;;5111566;28;20273;-83
2023/12/01 13:14:24;;;;;;;6.23;5.17;;;;;;;;;;5108098;28;20265;-85
2023/12/01 13:16:51;;;;;;;6.53;5.10;;;;;;;;;;5111339;28;20235;-85
2023/12/01 13:19:18;;;;;;;7.37;5.60;;;;;;;;;;5106940;28;20211;-85
2023/12/01 13:21:45;;;;;;;6.20;5.30;;;;;;;;;;5109668;28;20239;-85
2023/12/01 13:24:13;;;;;;;6.27;5.60;;;;;;;;;;5112483;28;20203;-85
2023/12/01 13:26:40;;;;;;;6.17;5.30;;;;;;;;;;5111262;28;20239;-86
2023/12/01 13:29:08;;;;;;;9.67;5.60;;;;;;;;;;5111827;28;20208;-83
2023/12/01 13:31:35;;;;;;;8.10;5.57;;;;;;;;;;5111834;28;20227;-86
2023/12/01 13:34:02;;;;;;;6.30;5.23;;;;;;;;;;5113056;28;20616;-85
2023/12/01 13:36:29;;;;;;;5.47;4.97;;;;;;;;;;5113060;28;20242;-85
2023/12/01 13:38:57;;;;;;;5.90;4.60;;;;;;;;;;5113237;28;20550;-85
2023/12/01 13:41:25;;;;;;;5.57;5.03;;;;;;;;;;5112052;28;20577;-84
2023/12/01 13:43:52;;;;;;;5.90;5.30;;;;;;;;;;5120506;28;20291;-85
2023/12/01 13:46:20;;;;;;;7.23;4.70;;;;;;;;;;5123998;28;20231;-84
2023/12/01 13:48:47;;;;;;;6.60;5.20;;;;;;;;;;5116315;28;20227;-84
2023/12/01 13:51:14;;;;;;;6.43;4.97;;;;;;;;;;5107375;28;20233;-85
2023/12/01 13:53:42;;;;;;;6.37;5.67;;;;;;;;;;5111470;28;20569;-85
2023/12/01 13:56:09;;;;;;;7.07;5.67;;;;;;;;;;5111274;28;20300;-86
2023/12/01 13:58:38;;;;;;;10.97;6.30;;;;;;;;;;5111447;28;20211;-85
2023/12/01 14:01:05;;;;;;;7.20;6.13;;;;;;;;;;5110092;28;20223;-84
2023/12/01 14:03:33;;;;;;;7.20;6.17;;;;;;;;;;5104981;28;20265;-85
2023/12/01 14:06:00;;;;;;;7.50;5.90;;;;;;;;;;5109318;28;20245;-87
2023/12/01 14:08:27;;;;;;;7.60;5.97;;;;;;;;;;5109461;28;20196;-84
2023/12/01 14:10:56;;;;;;;7.80;6.20;;;;;;;;;;5112946;28;20246;-82
2023/12/01 14:13:24;;;;;;;10.60;6.23;;;;;;;;;;5114035;28;20196;-82
2023/12/01 14:15:51;;;;;;;7.57;6.00;;;;;;;;;;5111309;28;20258;-82
2023/12/01 14:18:18;;;;;;;10.87;6.43;;;;;;;;;;5111858;28;20200;-82
2023/12/01 14:20:46;;;;;;;9.13;6.00;;;;;;;;;;5108374;28;20280;-82
2023/12/01 14:23:13;;;;;;;7.53;5.37;;;;;;;;;;5111359;28;20222;-83
2023/12/01 14:25:40;;;;;;;7.60;6.00;;;;;;;;;;5110707;28;20246;-82
2023/12/01 14:28:07;;;;;;;7.40;6.10;;;;;;;;;;5111543;28;20690;-82
2023/12/01 14:30:34;;;;;;;8.70;6.27;;;;;;;;;;5110282;28;20235;-83